createdAt,value
2022-10-26T00:00:50.838Z,12.90
2022-10-26T00:03:18.187Z,13.00
2022-10-26T00:05:45.212Z,13.00
2022-10-26T00:08:12.210Z,13.00
2022-10-26T00:10:39.336Z,13.10
2022-10-26T00:13:09.064Z,13.10
2022-10-26T00:15:39.449Z,13.10
2022-10-26T00:18:06.093Z,13.20
2022-10-26T00:20:33.076Z,13.10
2022-10-26T00:22:59.779Z,13.20
2022-10-26T00:25:26.417Z,13.20
2022-10-26T00:27:53.330Z,13.20
2022-10-26T00:30:19.971Z,13.20
2022-10-26T00:32:46.574Z,13.20
2022-10-26T00:35:23.144Z,13.20
2022-10-26T00:37:56.497Z,13.20
2022-10-26T00:40:29.973Z,13.20
2022-10-26T00:42:57.042Z,13.20
2022-10-26T00:45:29.591Z,13.30
2022-10-26T00:48:07.310Z,13.20
2022-10-26T00:50:39.180Z,13.20
2022-10-26T00:53:07.593Z,13.30
2022-10-26T00:55:38.400Z,13.30
2022-10-26T00:58:07.002Z,13.30
2022-10-26T01:00:33.672Z,13.40
2022-10-26T01:03:04.319Z,13.40
2022-10-26T01:05:32.913Z,13.40
2022-10-26T01:08:00.280Z,13.40
2022-10-26T01:10:27.699Z,13.40
2022-10-26T01:12:55.831Z,13.40
2022-10-26T01:15:30.259Z,13.50
2022-10-26T01:18:44.334Z,13.50
2022-10-26T01:21:38.641Z,13.50
2022-10-26T01:24:33.532Z,13.50
2022-10-26T01:27:34.618Z,13.60
2022-10-26T01:30:20.071Z,13.50
2022-10-26T01:32:51.642Z,13.50
2022-10-26T01:35:27.566Z,13.50
2022-10-26T01:38:04.966Z,13.50
2022-10-26T01:40:39.545Z,13.50
2022-10-26T01:43:10.272Z,13.40
2022-10-26T01:45:41.879Z,13.50
2022-10-26T01:48:12.582Z,13.50
2022-10-26T01:50:41.882Z,13.50
2022-10-26T01:53:13.382Z,13.50
2022-10-26T01:55:52.091Z,13.50
2022-10-26T01:58:18.673Z,13.60
2022-10-26T02:01:01.027Z,13.60
2022-10-26T02:04:01.569Z,13.60
2022-10-26T02:07:03.429Z,13.60
2022-10-26T02:09:46.451Z,13.60
2022-10-26T02:12:38.525Z,13.60
2022-10-26T02:15:31.374Z,13.60
2022-10-26T02:18:14.666Z,13.60
2022-10-26T02:20:47.964Z,13.60
2022-10-26T02:23:15.322Z,13.60
2022-10-26T02:25:48.787Z,13.60
2022-10-26T02:28:19.780Z,13.70
2022-10-26T02:30:49.459Z,13.70
2022-10-26T02:33:17.878Z,13.70
2022-10-26T02:35:48.612Z,13.70
2022-10-26T02:38:17.761Z,13.70
2022-10-26T02:40:46.590Z,13.70
2022-10-26T02:43:21.853Z,13.70
2022-10-26T02:45:53.340Z,13.70
2022-10-26T02:48:20.549Z,13.70
2022-10-26T02:51:08.471Z,13.70
2022-10-26T02:54:09.407Z,13.70
2022-10-26T02:56:43.117Z,13.80
2022-10-26T02:59:11.606Z,13.80
2022-10-26T03:01:38.647Z,13.80
2022-10-26T03:04:05.611Z,13.70
2022-10-26T03:06:32.278Z,13.70
2022-10-26T03:08:58.911Z,13.70
2022-10-26T03:11:25.534Z,13.70
2022-10-26T03:13:52.328Z,13.70
2022-10-26T03:16:18.934Z,13.70
2022-10-26T03:18:45.566Z,13.70
2022-10-26T03:21:12.223Z,13.80
2022-10-26T03:23:38.884Z,13.80
2022-10-26T03:26:05.630Z,13.80
2022-10-26T03:28:32.272Z,13.80
2022-10-26T03:30:58.924Z,13.80
2022-10-26T03:33:27.091Z,13.80
2022-10-26T03:35:56.675Z,13.80
2022-10-26T03:38:23.963Z,13.80
2022-10-26T03:40:50.658Z,13.80
2022-10-26T03:43:17.281Z,13.80
2022-10-26T03:45:43.891Z,13.80
2022-10-26T03:48:10.516Z,13.80
2022-10-26T03:50:37.140Z,13.70
2022-10-26T03:53:04.029Z,13.70
2022-10-26T03:55:30.636Z,13.70
2022-10-26T03:57:57.267Z,13.70
2022-10-26T04:00:23.969Z,13.70
2022-10-26T04:02:55.679Z,13.70
2022-10-26T04:05:22.914Z,13.70
2022-10-26T04:07:57.106Z,13.50
2022-10-26T04:10:25.768Z,13.50
2022-10-26T04:12:52.962Z,13.50
2022-10-26T04:15:20.587Z,13.50
2022-10-26T04:17:47.670Z,13.50
2022-10-26T04:20:15.347Z,13.60
2022-10-26T04:22:42.005Z,13.60
2022-10-26T04:25:10.478Z,13.60
2022-10-26T04:27:37.170Z,13.60
2022-10-26T04:30:05.614Z,13.60
2022-10-26T04:32:32.253Z,13.60
2022-10-26T04:34:58.877Z,13.60
2022-10-26T04:37:25.551Z,13.60
2022-10-26T04:39:52.221Z,13.60
2022-10-26T04:42:18.872Z,13.60
2022-10-26T04:44:45.517Z,13.60
2022-10-26T04:47:12.133Z,13.60
2022-10-26T04:49:38.750Z,13.60
2022-10-26T04:52:06.853Z,13.60
2022-10-26T04:54:33.492Z,13.50
2022-10-26T04:57:00.170Z,13.50
2022-10-26T04:59:27.238Z,13.50
2022-10-26T05:01:53.991Z,13.50
2022-10-26T05:04:20.720Z,13.50
2022-10-26T05:06:47.342Z,13.60
2022-10-26T05:09:13.988Z,13.60
2022-10-26T05:11:40.582Z,13.60
2022-10-26T05:14:07.210Z,13.50
2022-10-26T05:16:33.835Z,13.50
2022-10-26T05:19:00.535Z,13.50
2022-10-26T05:21:27.191Z,13.50
2022-10-26T05:23:55.312Z,13.50
2022-10-26T05:26:22.974Z,13.50
2022-10-26T05:28:49.804Z,13.50
2022-10-26T05:31:16.542Z,13.40
2022-10-26T05:33:43.173Z,13.40
2022-10-26T05:36:09.877Z,13.40
2022-10-26T05:38:36.518Z,13.40
2022-10-26T05:41:03.247Z,13.30
2022-10-26T05:43:30.305Z,13.30
2022-10-26T05:45:56.963Z,13.30
2022-10-26T05:48:23.647Z,13.30
2022-10-26T05:50:50.696Z,13.30
2022-10-26T05:53:17.809Z,13.30
2022-10-26T05:55:44.872Z,13.30
2022-10-26T05:58:13.098Z,13.20
2022-10-26T06:01:02.995Z,13.20
2022-10-26T06:04:08.292Z,13.20
2022-10-26T06:06:42.108Z,13.20
2022-10-26T06:09:11.555Z,13.20
2022-10-26T06:11:38.570Z,13.20
2022-10-26T06:14:05.731Z,13.20
2022-10-26T06:17:09.506Z,13.20
2022-10-26T06:19:47.400Z,13.10
2022-10-26T06:22:21.794Z,13.10
2022-10-26T06:25:06.666Z,13.00
2022-10-26T06:28:01.362Z,13.00
2022-10-26T06:30:28.169Z,13.00
2022-10-26T06:33:05.828Z,13.00
2022-10-26T06:35:57.671Z,13.00
2022-10-26T06:38:27.799Z,13.10
2022-10-26T06:40:56.798Z,13.10
2022-10-26T06:43:29.219Z,13.20
2022-10-26T06:46:26.934Z,13.20
2022-10-26T06:49:14.118Z,13.20
2022-10-26T06:51:47.087Z,13.10
2022-10-26T06:54:23.267Z,13.20
2022-10-26T06:56:51.680Z,13.20
2022-10-26T06:59:39.885Z,13.20
2022-10-26T07:02:06.966Z,13.30
2022-10-26T07:04:33.834Z,13.40
2022-10-26T07:07:00.573Z,13.40
2022-10-26T07:09:27.210Z,13.50
2022-10-26T07:11:53.838Z,13.60
2022-10-26T07:14:20.507Z,13.60
2022-10-26T07:16:47.180Z,13.70
2022-10-26T07:19:13.830Z,13.70
2022-10-26T07:21:40.524Z,13.80
2022-10-26T07:24:07.526Z,13.90
2022-10-26T07:26:34.182Z,13.90
2022-10-26T07:29:00.927Z,14.00
2022-10-26T07:31:27.758Z,14.00
2022-10-26T07:33:54.665Z,14.10
2022-10-26T07:36:21.673Z,14.10
2022-10-26T07:38:52.227Z,14.20
2022-10-26T07:41:19.102Z,14.30
2022-10-26T07:43:45.854Z,14.10
2022-10-26T07:46:13.253Z,14.10
2022-10-26T07:48:42.046Z,14.00
2022-10-26T07:51:09.088Z,14.10
2022-10-26T07:53:35.715Z,14.10
2022-10-26T07:56:02.360Z,14.10
2022-10-26T07:58:29.066Z,14.20
2022-10-26T08:00:55.852Z,14.30
2022-10-26T08:03:22.662Z,14.40
2022-10-26T08:05:55.866Z,14.50
2022-10-26T08:08:22.704Z,14.50
2022-10-26T08:10:49.402Z,14.60
2022-10-26T08:13:16.246Z,14.70
2022-10-26T08:15:42.887Z,14.90
2022-10-26T08:18:09.603Z,15.00
2022-10-26T08:20:36.567Z,15.10
2022-10-26T08:23:06.275Z,15.30
2022-10-26T08:25:33.461Z,15.60
2022-10-26T08:28:04.116Z,16.40
2022-10-26T08:30:31.770Z,16.70
2022-10-26T08:33:03.679Z,16.80
2022-10-26T08:35:31.228Z,16.90
2022-10-26T08:37:58.174Z,17.20
2022-10-26T08:40:31.776Z,17.60
2022-10-26T08:43:03.208Z,19.10
2022-10-26T08:45:38.533Z,21.30
2022-10-26T08:48:15.904Z,22.90
2022-10-26T08:50:55.287Z,24.00
2022-10-26T08:53:40.967Z,25.20
2022-10-26T08:56:17.935Z,25.50
2022-10-26T08:58:54.032Z,25.20
2022-10-26T09:01:21.004Z,24.00
2022-10-26T09:03:47.710Z,23.40
2022-10-26T09:06:43.731Z,22.90
2022-10-26T09:09:14.094Z,22.20
2022-10-26T09:12:08.433Z,21.80
2022-10-26T09:14:44.463Z,21.70
2022-10-26T09:17:32.322Z,22.20
2022-10-26T09:20:09.230Z,22.50
2022-10-26T09:22:48.126Z,22.60
2022-10-26T09:25:19.308Z,23.50
2022-10-26T09:27:55.511Z,24.60
2022-10-26T09:30:22.902Z,24.90
2022-10-26T09:33:03.928Z,25.20
2022-10-26T09:35:43.431Z,26.20
2022-10-26T09:38:16.758Z,26.70
2022-10-26T09:41:05.264Z,27.50
2022-10-26T09:43:37.962Z,26.50
2022-10-26T09:46:04.675Z,26.30
2022-10-26T09:48:47.913Z,27.50
2022-10-26T09:51:16.853Z,29.10
2022-10-26T09:53:43.742Z,29.20
2022-10-26T09:56:12.649Z,27.60
2022-10-26T09:58:44.114Z,26.10
2022-10-26T10:01:36.808Z,26.00
2022-10-26T10:04:22.498Z,25.20
2022-10-26T10:06:52.013Z,24.20
2022-10-26T10:09:21.199Z,23.30
2022-10-26T10:11:57.903Z,23.00
2022-10-26T10:14:31.800Z,24.10
2022-10-26T10:17:01.803Z,26.50
2022-10-26T10:19:29.892Z,28.80
2022-10-26T10:22:22.364Z,30.30
2022-10-26T10:25:00.575Z,32.40
2022-10-26T10:27:29.306Z,33.40
2022-10-26T10:30:01.409Z,34.10
2022-10-26T10:32:35.403Z,34.00
2022-10-26T10:35:29.290Z,32.10
2022-10-26T10:37:56.468Z,32.70
2022-10-26T10:40:30.693Z,33.80
2022-10-26T10:43:27.074Z,34.20
2022-10-26T10:45:59.533Z,34.00
2022-10-26T10:48:28.830Z,34.00
2022-10-26T10:51:00.999Z,35.20
2022-10-26T10:53:45.029Z,35.50
2022-10-26T10:56:34.840Z,34.80
2022-10-26T10:59:27.123Z,33.50
2022-10-26T11:02:37.964Z,31.90
2022-10-26T11:05:34.666Z,31.00
2022-10-26T11:08:12.863Z,30.50
2022-10-26T11:10:47.617Z,30.20
2022-10-26T11:13:45.302Z,29.50
2022-10-26T11:16:16.711Z,28.60
2022-10-26T11:18:49.292Z,27.90
2022-10-26T11:21:31.053Z,26.90
2022-10-26T11:24:06.938Z,26.10
2022-10-26T11:26:42.411Z,25.50
2022-10-26T11:29:19.273Z,25.20
2022-10-26T11:32:02.559Z,25.00
2022-10-26T11:34:46.547Z,24.80
2022-10-26T11:37:22.812Z,24.40
2022-10-26T11:40:28.458Z,23.90
2022-10-26T11:42:55.038Z,23.40
2022-10-26T11:45:34.413Z,23.00
2022-10-26T11:48:14.486Z,22.70
2022-10-26T11:50:45.529Z,22.30
2022-10-26T11:53:19.151Z,22.10
2022-10-26T11:55:54.400Z,21.80
2022-10-26T11:58:26.644Z,21.50
2022-10-26T12:01:07.779Z,21.30
2022-10-26T12:03:39.945Z,21.10
2022-10-26T12:06:06.738Z,21.10
2022-10-26T12:08:40.693Z,21.00
2022-10-26T12:11:42.183Z,20.90
2022-10-26T12:14:26.601Z,20.90
2022-10-26T12:17:09.713Z,21.00
2022-10-26T12:19:42.207Z,21.00
2022-10-26T12:22:17.441Z,20.90
2022-10-26T12:25:04.905Z,21.00
2022-10-26T12:27:40.609Z,21.10
2022-10-26T12:30:31.278Z,21.30
2022-10-26T12:33:00.331Z,21.50
2022-10-26T12:35:39.943Z,21.70
2022-10-26T12:38:21.613Z,21.90
2022-10-26T12:40:49.758Z,21.90
2022-10-26T12:43:16.326Z,21.90
2022-10-26T12:45:44.946Z,22.00
2022-10-26T12:48:27.919Z,22.10
2022-10-26T12:51:21.648Z,22.10
2022-10-26T12:54:03.421Z,22.20
2022-10-26T12:56:51.173Z,22.30
2022-10-26T12:59:46.468Z,22.30
2022-10-26T13:02:37.910Z,22.30
2022-10-26T13:05:19.350Z,22.40
2022-10-26T13:07:46.895Z,22.30
2022-10-26T13:10:13.506Z,22.30
2022-10-26T13:12:49.281Z,22.30
2022-10-26T13:15:33.266Z,22.30
2022-10-26T13:18:19.131Z,22.30
2022-10-26T13:21:13.604Z,22.30
2022-10-26T13:23:43.443Z,22.40
2022-10-26T13:26:14.930Z,22.50
2022-10-26T13:28:41.530Z,22.90
2022-10-26T13:31:24.581Z,24.40
2022-10-26T13:33:54.454Z,25.90
2022-10-26T13:36:26.127Z,27.00
2022-10-26T13:38:53.583Z,27.90
2022-10-26T13:41:31.315Z,28.10
2022-10-26T13:43:59.550Z,28.60
2022-10-26T13:46:27.885Z,28.80
2022-10-26T13:49:09.718Z,28.70
2022-10-26T13:51:43.231Z,28.40
2022-10-26T13:54:36.723Z,28.20
2022-10-26T13:57:19.278Z,28.20
2022-10-26T13:59:46.736Z,28.30
2022-10-26T14:02:28.181Z,28.40
2022-10-26T14:05:01.675Z,28.70
2022-10-26T14:07:37.648Z,28.90
2022-10-26T14:10:05.169Z,28.80
2022-10-26T14:12:32.729Z,29.00
2022-10-26T14:15:10.081Z,28.70
2022-10-26T14:17:36.716Z,28.30
2022-10-26T14:20:04.825Z,27.90
2022-10-26T14:22:31.471Z,27.60
2022-10-26T14:25:00.226Z,27.10
2022-10-26T14:27:32.587Z,26.90
2022-10-26T14:32:47.336Z,26.40
2022-10-26T14:35:14.687Z,26.20
2022-10-26T14:37:50.052Z,26.20
2022-10-26T14:40:19.703Z,26.10
2022-10-26T14:42:50.743Z,25.80
2022-10-26T14:45:50.193Z,25.60
2022-10-26T14:48:31.018Z,25.30
2022-10-26T14:51:01.559Z,25.20
2022-10-26T14:53:37.339Z,25.10
2022-10-26T14:56:05.981Z,24.90
2022-10-26T14:58:35.172Z,25.00
2022-10-26T15:01:25.105Z,25.20
2022-10-26T15:03:56.110Z,25.40
2022-10-26T15:06:28.681Z,25.30
2022-10-26T15:09:00.290Z,25.30
2022-10-26T15:11:28.704Z,25.20
2022-10-26T15:13:57.061Z,25.20
2022-10-26T15:16:27.738Z,25.10
2022-10-26T15:19:06.749Z,25.10
2022-10-26T15:21:41.982Z,25.00
2022-10-26T15:24:31.133Z,24.70
2022-10-26T15:27:00.884Z,24.50
2022-10-26T15:29:34.256Z,24.20
2022-10-26T15:32:02.177Z,24.10
2022-10-26T15:34:28.839Z,24.00
2022-10-26T15:36:56.614Z,23.80
2022-10-26T15:39:25.215Z,23.70
2022-10-26T15:41:53.527Z,23.50
2022-10-26T15:44:21.989Z,23.20
2022-10-26T15:46:50.066Z,23.00
2022-10-26T15:49:19.790Z,22.80
2022-10-26T15:51:48.101Z,22.70
2022-10-26T15:54:15.136Z,22.50
2022-10-26T15:56:43.749Z,22.40
2022-10-26T15:59:16.470Z,22.20
2022-10-26T16:01:43.318Z,21.90
2022-10-26T16:04:14.134Z,21.60
2022-10-26T16:06:42.173Z,21.40
2022-10-26T16:09:15.299Z,21.30
2022-10-26T16:11:42.875Z,21.20
2022-10-26T16:14:10.996Z,21.00
2022-10-26T16:16:37.739Z,20.90
2022-10-26T16:21:32.278Z,20.60
2022-10-26T16:23:58.925Z,20.40
2022-10-26T16:26:25.632Z,20.30
2022-10-26T16:28:52.495Z,20.10
2022-10-26T16:31:20.640Z,19.90
2022-10-26T16:33:47.465Z,19.80
2022-10-26T16:36:14.374Z,19.70
2022-10-26T16:38:41.103Z,19.50
2022-10-26T16:41:09.282Z,19.30
2022-10-26T16:43:38.855Z,19.20
2022-10-26T16:46:17.030Z,19.00
2022-10-26T16:48:45.342Z,18.80
2022-10-26T16:51:17.623Z,18.70
2022-10-26T16:53:46.972Z,18.70
2022-10-26T16:56:25.102Z,18.70
2022-10-26T16:58:52.108Z,18.50
2022-10-26T17:01:20.696Z,18.40
2022-10-26T17:03:49.601Z,18.30
2022-10-26T17:06:17.254Z,18.30
2022-10-26T17:08:44.322Z,18.30
2022-10-26T17:11:19.837Z,18.20
2022-10-26T17:13:47.564Z,18.20
2022-10-26T17:16:19.354Z,18.10
2022-10-26T17:18:47.243Z,18.10
2022-10-26T17:21:15.947Z,18.00
2022-10-26T17:23:42.613Z,17.90
2022-10-26T17:26:11.926Z,18.00
2022-10-26T17:28:38.674Z,18.00
2022-10-26T17:31:13.509Z,18.00
2022-10-26T17:33:42.744Z,18.10
2022-10-26T17:36:12.497Z,18.10
2022-10-26T17:38:41.242Z,18.10
2022-10-26T17:41:12.133Z,18.10
2022-10-26T17:43:40.411Z,18.10
2022-10-26T17:46:11.934Z,18.20
2022-10-26T17:48:38.870Z,18.10
2022-10-26T17:51:08.426Z,18.00
2022-10-26T17:53:35.070Z,18.00
2022-10-26T17:56:12.600Z,18.00
2022-10-26T17:58:39.523Z,17.80
2022-10-26T18:01:08.306Z,17.70
2022-10-26T18:03:35.646Z,17.60
2022-10-26T18:06:03.699Z,17.70
2022-10-26T18:08:31.822Z,17.60
2022-10-26T18:11:01.275Z,17.50
2022-10-26T18:13:29.173Z,17.50
2022-10-26T18:15:55.923Z,17.40
2022-10-26T18:18:22.605Z,17.30
2022-10-26T18:20:49.219Z,17.30
2022-10-26T18:23:16.119Z,17.20
2022-10-26T18:25:42.746Z,17.20
2022-10-26T18:28:09.416Z,17.10
2022-10-26T18:30:36.057Z,17.00
2022-10-26T18:33:02.732Z,16.90
2022-10-26T18:35:29.354Z,16.80
2022-10-26T18:37:55.983Z,16.80
2022-10-26T18:40:22.684Z,16.80
2022-10-26T18:42:49.335Z,16.70
2022-10-26T18:45:16.021Z,16.70
2022-10-26T18:47:42.669Z,16.70
2022-10-26T18:50:09.426Z,16.60
2022-10-26T18:52:36.158Z,16.60
2022-10-26T18:55:03.022Z,16.50
2022-10-26T18:57:29.818Z,16.40
2022-10-26T18:59:56.446Z,16.30
2022-10-26T19:02:23.272Z,16.20
2022-10-26T19:04:52.991Z,16.20
2022-10-26T19:07:19.729Z,16.10
2022-10-26T19:09:46.337Z,16.00
2022-10-26T19:12:12.993Z,15.90
2022-10-26T19:14:39.614Z,15.90
2022-10-26T19:17:06.260Z,15.90
2022-10-26T19:19:32.865Z,15.80
2022-10-26T19:22:00.954Z,15.80
2022-10-26T19:24:27.719Z,15.70
2022-10-26T19:26:54.484Z,15.60
2022-10-26T19:29:21.509Z,15.60
2022-10-26T19:31:51.448Z,15.50
2022-10-26T19:34:18.820Z,15.50
2022-10-26T19:36:46.941Z,15.40
2022-10-26T19:39:15.394Z,15.40
2022-10-26T19:41:42.420Z,15.30
2022-10-26T19:44:10.557Z,15.30
2022-10-26T19:46:38.069Z,15.20
2022-10-26T19:49:04.773Z,15.10
2022-10-26T19:51:32.055Z,15.00
2022-10-26T19:54:03.183Z,15.00
2022-10-26T19:56:32.078Z,14.90
2022-10-26T19:58:59.019Z,14.80
2022-10-26T20:01:25.740Z,14.80
2022-10-26T20:03:52.439Z,14.80
2022-10-26T20:06:19.383Z,14.80
2022-10-26T20:08:48.197Z,14.70
2022-10-26T20:11:16.634Z,14.60
2022-10-26T20:13:45.234Z,14.70
2022-10-26T20:16:12.909Z,14.60
2022-10-26T20:18:42.730Z,14.50
2022-10-26T20:21:16.130Z,14.40
2022-10-26T20:23:43.857Z,14.40
2022-10-26T20:26:16.445Z,14.30
2022-10-26T20:28:47.718Z,14.20
2022-10-26T20:31:14.581Z,14.20
2022-10-26T20:33:41.271Z,14.20
2022-10-26T20:36:08.129Z,14.10
2022-10-26T20:38:35.077Z,14.10
2022-10-26T20:41:06.098Z,14.00
2022-10-26T20:43:38.920Z,14.00
2022-10-26T20:46:06.506Z,13.90
2022-10-26T20:48:33.718Z,13.90
2022-10-26T20:51:06.895Z,13.90
2022-10-26T20:53:46.875Z,13.90
2022-10-26T20:56:24.699Z,14.00
2022-10-26T20:58:54.681Z,13.90
2022-10-26T21:01:29.577Z,13.90
2022-10-26T21:03:58.618Z,13.90
2022-10-26T21:06:26.467Z,13.90
2022-10-26T21:08:54.683Z,13.90
2022-10-26T21:11:23.164Z,13.70
2022-10-26T21:13:50.362Z,13.70
2022-10-26T21:16:17.722Z,13.60
2022-10-26T21:18:44.392Z,13.60
2022-10-26T21:21:11.283Z,13.50
2022-10-26T21:23:40.046Z,13.50
2022-10-26T21:26:07.823Z,13.50
2022-10-26T21:28:42.228Z,13.40
2022-10-26T21:31:11.119Z,13.40
2022-10-26T21:33:38.277Z,13.30
2022-10-26T21:36:07.275Z,13.30
2022-10-26T21:38:34.018Z,13.30
2022-10-26T21:41:09.708Z,13.20
2022-10-26T21:43:38.546Z,13.20
2022-10-26T21:46:06.122Z,13.10
2022-10-26T21:48:34.406Z,13.00
2022-10-26T21:51:06.327Z,12.90
2022-10-26T21:53:32.990Z,13.00
2022-10-26T21:56:09.719Z,12.90
2022-10-26T21:58:36.746Z,12.90
2022-10-26T22:01:12.532Z,12.90
2022-10-26T22:03:40.427Z,12.90
2022-10-26T22:06:08.466Z,13.00
2022-10-26T22:08:35.869Z,13.00
2022-10-26T22:11:13.029Z,13.00
2022-10-26T22:13:42.621Z,13.10
2022-10-26T22:16:14.919Z,13.10
2022-10-26T22:18:44.217Z,13.10
2022-10-26T22:21:12.411Z,13.10
2022-10-26T22:23:40.863Z,13.10
2022-10-26T22:26:10.785Z,13.10
2022-10-26T22:28:41.758Z,13.10
2022-10-26T22:31:12.770Z,13.00
2022-10-26T22:33:39.817Z,13.00
2022-10-26T22:36:08.374Z,13.00
2022-10-26T22:38:35.525Z,12.90
2022-10-26T22:41:02.288Z,12.90
2022-10-26T22:43:28.953Z,12.80
2022-10-26T22:46:08.027Z,12.70
2022-10-26T22:48:35.500Z,12.60
2022-10-26T22:51:07.029Z,12.60
2022-10-26T22:53:33.643Z,12.50
2022-10-26T22:56:01.561Z,12.50
2022-10-26T22:58:28.561Z,12.50
2022-10-26T23:01:22.690Z,12.40
2022-10-26T23:03:50.221Z,12.40
2022-10-26T23:06:19.138Z,12.30
2022-10-26T23:08:46.952Z,12.30
2022-10-26T23:11:16.846Z,12.20
2022-10-26T23:13:44.030Z,12.10
2022-10-26T23:16:13.685Z,12.10
2022-10-26T23:18:40.573Z,12.10
2022-10-26T23:21:09.495Z,12.10
2022-10-26T23:23:36.711Z,12.00
2022-10-26T23:26:09.097Z,12.00
2022-10-26T23:28:36.409Z,12.00
2022-10-26T23:31:03.896Z,12.00
2022-10-26T23:33:30.987Z,11.90
2022-10-26T23:35:57.906Z,11.90
2022-10-26T23:38:25.606Z,11.90
2022-10-26T23:40:54.227Z,11.90
2022-10-26T23:43:21.555Z,11.90
2022-10-26T23:45:48.836Z,11.80
2022-10-26T23:48:16.558Z,11.80
2022-10-26T23:50:44.551Z,11.80
2022-10-26T23:53:12.433Z,11.90
2022-10-26T23:55:39.801Z,11.90
2022-10-26T23:58:06.557Z,12.00
